Time;durP1;ratioP1;P1;durP2;ratioP2;P2;SDS_P1;SDS_P2;PMS_P1;PMS_P2;Temp;Humidity;BMP_temperature;BMP_pressure;BME280_temperature;BME280_humidity;BME280_pressure;Samples;Min_cycle;Max_cycle;Signal;HPM_P1;HPM_P2
2021/09/07 00:00:16;;;;;;;7.80;2.30;;;;;;;10.45;50.37;100591.83;26917;1220;3026418;-65
2021/09/07 00:02:45;;;;;;;7.60;2.50;;;;;;;10.45;50.31;100588.48;26884;1225;3052726;-63
2021/09/07 00:05:17;;;;;;;6.80;2.80;;;;;;;10.48;50.39;100594.48;26896;1222;3026440;-66
2021/09/07 00:07:47;;;;;;;6.20;2.60;;;;;;;10.51;50.38;100588.75;26908;1220;3026509;-65
2021/09/07 00:10:16;;;;;;;6.40;2.90;;;;;;;10.51;50.44;100593.52;26906;1221;3026579;-65
2021/09/07 00:12:48;;;;;;;6.40;2.60;;;;;;;10.50;50.32;100592.67;26916;1220;3026711;-64
2021/09/07 00:15:18;;;;;;;8.30;3.00;;;;;;;10.51;50.45;100592.80;26921;1221;3026849;-66
2021/09/07 00:17:48;;;;;;;5.40;2.70;;;;;;;10.53;50.43;100590.63;26899;1220;3026975;-64
2021/09/07 00:20:19;;;;;;;6.90;2.50;;;;;;;10.51;50.57;100591.58;26892;1222;3026142;-66
2021/09/07 00:22:48;;;;;;;4.90;2.40;;;;;;;10.45;50.71;100592.88;26883;1221;3026933;-66
2021/09/07 00:25:19;;;;;;;9.20;3.00;;;;;;;10.44;50.50;100597.31;26878;1229;3026594;-64
2021/09/07 00:27:49;;;;;;;4.90;2.60;;;;;;;10.42;50.80;100596.66;26929;1221;3026590;-63
2021/09/07 00:30:18;;;;;;;10.60;3.80;;;;;;;10.45;50.61;100596.73;26890;1226;3050871;-65
2021/09/07 00:32:51;;;;;;;10.40;3.40;;;;;;;10.41;50.66;100593.04;26908;1225;3069839;-66
2021/09/07 00:35:22;;;;;;;8.00;3.30;;;;;;;10.40;50.76;100591.33;26907;1224;3026607;-66
2021/09/07 00:37:52;;;;;;;7.90;2.80;;;;;;;10.38;50.71;100591.21;26887;1220;3026173;-64
2021/09/07 00:40:21;;;;;;;5.90;2.90;;;;;;;10.31;50.88;100593.93;26910;1220;3026778;-62
2021/09/07 00:42:50;;;;;;;6.00;2.90;;;;;;;10.22;51.26;100593.08;26912;1221;3047808;-61
2021/09/07 00:45:19;;;;;;;7.40;3.00;;;;;;;10.14;51.52;100593.23;26875;1220;3026548;-67
2021/09/07 00:47:48;;;;;;;9.60;3.60;;;;;;;10.12;51.59;100599.45;26884;1224;3067563;-62
2021/09/07 00:50:17;;;;;;;10.10;3.50;;;;;;;10.10;51.94;100600.77;26909;1220;3026744;-67
2021/09/07 00:52:47;;;;;;;8.20;3.60;;;;;;;10.01;51.95;100599.36;26898;1229;3050068;-63
2021/09/07 00:55:16;;;;;;;7.10;3.50;;;;;;;9.98;52.13;100600.20;26844;1225;3028612;-66
2021/09/07 00:57:45;;;;;;;7.00;3.40;;;;;;;9.99;52.29;100599.81;26889;1227;3054020;-64
2021/09/07 01:00:14;;;;;;;9.20;3.10;;;;;;;10.00;52.09;100600.83;26956;1225;3026192;-65
2021/09/07 01:02:45;;;;;;;7.90;3.10;;;;;;;9.97;52.33;100601.46;26897;1225;3027583;-64
2021/09/07 01:05:14;;;;;;;6.50;3.10;;;;;;;9.97;52.12;100600.77;26900;1222;3026135;-63
2021/09/07 01:07:43;;;;;;;5.80;2.60;;;;;;;9.97;52.20;100603.22;26923;1225;3026773;-64
2021/09/07 01:10:26;;;;;;;6.00;2.60;;;;;;;9.94;52.39;100605.10;26914;1225;3054817;-63
2021/09/07 01:13:15;;;;;;;6.00;2.70;;;;;;;9.90;52.37;100601.89;26872;1229;3056369;-63
2021/09/07 01:15:44;;;;;;;7.40;2.70;;;;;;;9.90;52.46;100602.78;26902;1225;3026511;-64
2021/09/07 01:18:14;;;;;;;6.10;3.40;;;;;;;9.88;52.49;100601.98;26923;1225;3052536;-62
2021/09/07 01:20:43;;;;;;;8.30;2.80;;;;;;;9.84;52.71;100604.94;26906;1222;3026029;-62
2021/09/07 01:23:12;;;;;;;6.90;2.70;;;;;;;9.79;53.01;100608.48;26894;1228;3026334;-67
2021/09/07 01:25:41;;;;;;;7.40;3.20;;;;;;;9.68;53.53;100607.67;26913;1220;3054345;-63
2021/09/07 01:28:13;;;;;;;9.90;3.30;;;;;;;9.61;53.87;100602.34;26900;1225;3027038;-67
2021/09/07 01:30:44;;;;;;;11.80;2.80;;;;;;;9.55;54.07;100598.73;26911;1226;3054606;-65
2021/09/07 01:33:15;;;;;;;9.00;3.10;;;;;;;9.51;54.32;100600.25;26913;1221;3026338;-61
2021/09/07 01:35:44;;;;;;;5.90;3.00;;;;;;;9.49;54.61;100602.63;26895;1225;3026282;-66
2021/09/07 01:38:13;;;;;;;9.60;3.30;;;;;;;9.45;55.07;100603.47;26886;1226;3053560;-67
2021/09/07 01:40:44;;;;;;;11.20;3.20;;;;;;;9.47;55.20;100601.99;26918;1227;3027362;-63
2021/09/07 01:43:15;;;;;;;10.40;3.40;;;;;;;9.46;54.97;100603.97;26956;1221;3027571;-64
2021/09/07 01:45:49;;;;;;;8.50;4.00;;;;;;;9.38;55.63;100605.98;26872;1222;3026113;-68
2021/09/07 01:48:24;;;;;;;8.30;4.00;;;;;;;9.37;55.92;100602.02;26916;1229;3055355;-69
2021/09/07 01:50:53;;;;;;;11.70;4.50;;;;;;;9.35;55.83;100602.26;26894;1225;3026372;-68
2021/09/07 01:53:22;;;;;;;12.90;4.90;;;;;;;9.41;56.04;100606.58;26905;1224;3026184;-62
2021/09/07 01:55:51;;;;;;;14.20;4.90;;;;;;;9.42;56.03;100606.88;26910;1230;3051470;-63
2021/09/07 01:58:21;;;;;;;16.20;4.70;;;;;;;9.43;55.96;100603.55;26933;1228;3027133;-64
2021/09/07 02:00:50;;;;;;;9.90;4.20;;;;;;;9.46;56.14;100608.35;26906;1227;3025892;-63
2021/09/07 02:03:20;;;;;;;13.80;5.20;;;;;;;9.39;56.29;100611.90;26937;1225;3026534;-61
2021/09/07 02:05:49;;;;;;;10.40;4.40;;;;;;;9.34;56.76;100611.75;26919;1221;3026197;-62
2021/09/07 02:08:19;;;;;;;10.40;4.70;;;;;;;9.31;56.74;100610.83;26940;1220;3026521;-68
2021/09/07 02:10:48;;;;;;;11.10;4.30;;;;;;;9.26;57.29;100610.83;26966;1224;3027854;-64
2021/09/07 02:13:20;;;;;;;8.10;4.40;;;;;;;9.23;57.54;100619.30;26920;1220;3053992;-68
2021/09/07 02:15:49;;;;;;;9.00;3.90;;;;;;;9.19;58.00;100616.83;26906;1228;3026807;-65
2021/09/07 02:18:18;;;;;;;9.30;3.80;;;;;;;9.12;58.32;100617.61;26897;1225;3026242;-62
2021/09/07 02:20:50;;;;;;;16.60;4.40;;;;;;;9.12;58.24;100621.27;26923;1230;3054795;-63
2021/09/07 02:23:20;;;;;;;12.80;4.50;;;;;;;9.07;58.24;100620.05;26896;1222;3026211;-69
2021/09/07 02:25:49;;;;;;;10.70;3.80;;;;;;;9.10;58.22;100619.27;26884;1226;3026584;-65
2021/09/07 02:28:38;;;;;;;10.60;4.00;;;;;;;9.09;58.62;100619.29;26886;1224;3049716;-63
2021/09/07 02:31:08;;;;;;;14.70;4.70;;;;;;;9.03;59.10;100621.61;26906;1225;3026392;-66
2021/09/07 02:33:37;;;;;;;11.90;5.10;;;;;;;9.05;58.91;100625.20;26887;1224;3026788;-67
2021/09/07 02:36:08;;;;;;;12.30;4.90;;;;;;;9.04;58.50;100628.02;26909;1229;3026183;-64
2021/09/07 02:38:37;;;;;;;12.30;4.30;;;;;;;9.09;58.00;100627.01;26920;1224;3026186;-67
2021/09/07 02:41:07;;;;;;;11.00;4.70;;;;;;;9.15;58.04;100633.59;26908;1225;3050587;-69
2021/09/07 02:43:38;;;;;;;14.70;4.50;;;;;;;9.16;57.51;100629.70;26948;1224;3025836;-63
2021/09/07 02:46:07;;;;;;;13.10;4.40;;;;;;;9.25;57.52;100636.20;26929;1221;3027047;-63
2021/09/07 02:48:36;;;;;;;18.90;5.30;;;;;;;9.26;57.42;100638.98;26913;1225;3026526;-65
2021/09/07 02:51:07;;;;;;;10.60;4.50;;;;;;;9.29;57.19;100641.13;26905;1225;3070688;-68
2021/09/07 02:53:38;;;;;;;21.80;5.70;;;;;;;9.25;57.55;100640.94;26906;1222;3025880;-64
2021/09/07 02:56:07;;;;;;;21.90;7.00;;;;;;;9.29;57.65;100644.98;26909;1225;3026427;-62
2021/09/07 02:58:37;;;;;;;13.10;5.90;;;;;;;9.22;57.49;100648.53;26904;1220;3027372;-66
2021/09/07 03:01:07;;;;;;;15.40;6.80;;;;;;;9.16;57.83;100650.66;26884;1221;3026527;-64
2021/09/07 03:03:36;;;;;;;18.20;6.60;;;;;;;9.13;58.08;100653.77;26895;1225;3026398;-65
2021/09/07 03:06:05;;;;;;;19.10;7.00;;;;;;;9.00;58.72;100655.63;26939;1224;3026594;-66
2021/09/07 03:08:34;;;;;;;20.10;6.90;;;;;;;8.96;59.33;100654.35;26895;1225;3027238;-63
2021/09/07 03:11:05;;;;;;;24.20;8.20;;;;;;;8.89;59.50;100662.46;26911;1231;3051935;-64
2021/09/07 03:13:35;;;;;;;22.00;7.30;;;;;;;8.86;60.06;100662.20;26899;1225;3026126;-67
2021/09/07 03:16:04;;;;;;;16.70;8.00;;;;;;;8.76;60.94;100667.44;26937;1224;3028760;-67
2021/09/07 03:18:33;;;;;;;24.40;9.60;;;;;;;8.71;61.22;100667.09;26902;1225;3048737;-67
2021/09/07 03:21:16;;;;;;;24.90;9.50;;;;;;;8.66;61.71;100670.58;26892;1225;3054397;-64
2021/09/07 03:23:48;;;;;;;23.60;10.10;;;;;;;8.64;62.10;100674.66;26889;1225;3026487;-62
2021/09/07 03:26:19;;;;;;;25.10;10.00;;;;;;;8.63;62.52;100673.46;26886;1222;3026409;-66
2021/09/07 03:28:49;;;;;;;26.90;10.70;;;;;;;8.60;62.69;100673.22;26940;1225;3026370;-64
2021/09/07 03:31:18;;;;;;;26.00;7.40;;;;;;;8.55;62.45;100673.56;26936;1224;3026469;-69
2021/09/07 03:33:47;;;;;;;22.30;8.50;;;;;;;8.58;62.24;100677.15;26903;1228;3026285;-66
2021/09/07 03:36:17;;;;;;;26.10;9.70;;;;;;;8.62;61.95;100677.88;26904;1229;3047608;-64
2021/09/07 03:38:49;;;;;;;27.20;11.20;;;;;;;8.54;63.43;100684.23;26949;1225;3028961;-62
2021/09/07 03:41:18;;;;;;;30.10;11.80;;;;;;;8.42;63.43;100681.82;26930;1222;3026088;-67
2021/09/07 03:43:48;;;;;;;26.00;9.70;;;;;;;8.42;62.54;100681.80;26937;1223;3051320;-64
2021/09/07 03:46:30;;;;;;;23.10;9.10;;;;;;;8.43;62.92;100687.02;26900;1225;3054310;-61
2021/09/07 03:49:01;;;;;;;20.70;7.50;;;;;;;8.40;62.34;100687.10;26893;1224;3027719;-67
2021/09/07 03:51:31;;;;;;;17.70;7.10;;;;;;;8.46;60.88;100685.55;26956;1225;3026417;-65
2021/09/07 03:54:01;;;;;;;20.30;7.60;;;;;;;8.55;61.27;100687.52;26950;1226;3028345;-69
2021/09/07 03:56:32;;;;;;;16.40;5.90;;;;;;;8.59;60.32;100688.29;26990;1225;3025792;-69
2021/09/07 03:59:03;;;;;;;22.90;7.30;;;;;;;8.72;60.72;100689.27;26951;1226;3027935;-64
2021/09/07 04:01:32;;;;;;;20.90;7.40;;;;;;;8.81;60.57;100692.79;26960;1222;3027981;-68
2021/09/07 04:04:02;;;;;;;14.60;6.50;;;;;;;8.94;59.95;100692.18;26982;1224;3026504;-65
2021/09/07 04:06:32;;;;;;;21.20;6.70;;;;;;;9.05;59.39;100693.73;26949;1222;3051066;-65
2021/09/07 04:09:03;;;;;;;20.90;6.30;;;;;;;9.14;59.08;100696.89;26926;1225;3026260;-66
2021/09/07 04:11:32;;;;;;;14.90;6.00;;;;;;;9.21;58.99;100697.35;26917;1224;3026213;-65
2021/09/07 04:14:02;;;;;;;16.00;5.70;;;;;;;9.27;58.88;100692.78;26889;1225;3026515;-65
2021/09/07 04:16:31;;;;;;;10.80;4.50;;;;;;;9.37;58.03;100695.73;26910;1225;3026584;-64
2021/09/07 04:19:00;;;;;;;10.30;4.00;;;;;;;9.53;57.26;100694.98;26905;1220;3047683;-69
2021/09/07 04:21:29;;;;;;;9.90;4.10;;;;;;;9.66;56.77;100701.52;26929;1225;3026363;-64
2021/09/07 04:23:58;;;;;;;9.80;4.60;;;;;;;9.76;56.59;100707.45;26922;1225;3026287;-66
2021/09/07 04:26:29;;;;;;;12.50;4.60;;;;;;;9.78;56.47;100706.48;26911;1226;3050345;-64
2021/09/07 04:28:59;;;;;;;11.70;4.90;;;;;;;9.85;56.65;100707.29;26914;1224;3026319;-64
2021/09/07 04:31:28;;;;;;;9.50;4.20;;;;;;;9.94;56.50;100705.73;26898;1223;3026209;-68
2021/09/07 04:33:57;;;;;;;15.60;4.00;;;;;;;10.02;56.42;100704.18;26921;1224;3026163;-67
2021/09/07 04:36:27;;;;;;;17.90;4.40;;;;;;;10.11;56.08;100703.29;26900;1221;3051141;-62
2021/09/07 04:38:56;;;;;;;12.10;4.20;;;;;;;10.21;56.14;100704.50;26938;1221;3026882;-64
2021/09/07 04:41:25;;;;;;;9.40;3.40;;;;;;;10.31;55.37;100703.92;26926;1220;3048804;-69
2021/09/07 04:43:55;;;;;;;7.20;3.70;;;;;;;10.41;55.18;100706.00;26938;1223;3026775;-64
2021/09/07 04:46:24;;;;;;;12.10;4.20;;;;;;;10.51;55.07;100706.48;26916;1220;3026356;-62
2021/09/07 04:48:56;;;;;;;11.20;3.90;;;;;;;10.60;54.92;100708.05;26889;1224;3026465;-66
2021/09/07 04:51:26;;;;;;;7.80;3.20;;;;;;;10.69;54.74;100708.02;26889;1222;3025953;-68
2021/09/07 04:53:58;;;;;;;8.20;3.70;;;;;;;10.75;54.45;100711.80;26969;1221;3026147;-69
2021/09/07 04:56:27;;;;;;;10.90;4.10;;;;;;;10.84;54.48;100715.64;26956;1224;3026231;-64
2021/09/07 04:58:56;;;;;;;12.90;4.10;;;;;;;10.96;54.34;100718.83;26878;1220;3026125;-68
2021/09/07 05:01:25;;;;;;;9.50;4.10;;;;;;;11.04;54.12;100717.63;26903;1225;3052415;-63
2021/09/07 05:03:54;;;;;;;9.60;3.70;;;;;;;11.08;53.87;100719.89;26925;1221;3026250;-67
2021/09/07 05:06:23;;;;;;;10.80;3.70;;;;;;;11.12;53.80;100724.30;26897;1221;3049085;-67
2021/09/07 05:08:52;;;;;;;11.80;4.60;;;;;;;11.18;53.72;100726.83;26888;1221;3026600;-66
2021/09/07 05:11:23;;;;;;;13.90;3.60;;;;;;;11.26;53.25;100727.73;26931;1222;3026359;-65
2021/09/07 05:14:12;;;;;;;13.30;3.70;;;;;;;11.29;53.47;100732.33;26900;1228;3071099;-64
2021/09/07 05:16:41;;;;;;;10.00;3.60;;;;;;;11.34;53.54;100731.43;26899;1224;3026454;-63
2021/09/07 05:19:10;;;;;;;10.90;3.90;;;;;;;11.41;53.33;100726.23;26912;1223;3052813;-66
2021/09/07 05:21:58;;;;;;;10.00;4.30;;;;;;;11.47;53.55;100731.73;26878;1220;3067967;-62
2021/09/07 05:24:28;;;;;;;26.50;4.10;;;;;;;11.54;53.45;100733.88;26919;1225;3025958;-69
2021/09/07 05:26:58;;;;;;;12.20;4.50;;;;;;;11.59;53.33;100737.51;26941;1221;3026433;-64
2021/09/07 05:29:27;;;;;;;12.60;4.60;;;;;;;11.63;53.28;100737.15;26937;1224;3026744;-65
2021/09/07 05:31:57;;;;;;;13.90;4.80;;;;;;;11.69;53.16;100738.14;26888;1225;3026514;-68
2021/09/07 05:34:29;;;;;;;11.20;3.90;;;;;;;11.80;52.95;100741.48;26935;1222;3025674;-65
2021/09/07 05:36:58;;;;;;;15.80;4.40;;;;;;;11.89;52.47;100744.60;26905;1225;3050068;-62
2021/09/07 05:39:27;;;;;;;15.40;3.70;;;;;;;11.97;51.77;100747.10;26914;1225;3026452;-63
2021/09/07 05:41:56;;;;;;;12.20;4.20;;;;;;;12.08;51.05;100748.67;26929;1225;3025831;-64
2021/09/07 05:44:26;;;;;;;12.00;4.20;;;;;;;12.15;50.62;100751.33;26926;1228;3054047;-64
2021/09/07 05:46:56;;;;;;;12.20;4.40;;;;;;;12.20;50.32;100750.59;26891;1222;3026752;-69
2021/09/07 05:49:25;;;;;;;12.20;4.30;;;;;;;12.25;50.63;100758.42;26926;1228;3026751;-68
2021/09/07 05:51:54;;;;;;;9.80;4.10;;;;;;;12.39;50.43;100759.17;26915;1223;3028600;-69
2021/09/07 05:54:23;;;;;;;7.90;3.60;;;;;;;12.50;49.60;100759.52;26929;1223;3027614;-66
2021/09/07 05:56:57;;;;;;;11.10;3.70;;;;;;;12.60;49.51;100759.23;26927;1225;3051193;-69
2021/09/07 05:59:26;;;;;;;12.80;4.50;;;;;;;12.68;48.64;100758.63;26925;1226;3052835;-63
2021/09/07 06:01:55;;;;;;;11.00;4.40;;;;;;;12.73;48.63;100757.87;27006;1228;3026369;-68
2021/09/07 06:04:24;;;;;;;8.80;3.50;;;;;;;12.83;48.78;100765.48;26944;1221;3050999;-66
2021/09/07 06:06:54;;;;;;;9.20;3.40;;;;;;;12.85;47.93;100764.86;26961;1222;3026272;-64
2021/09/07 06:09:23;;;;;;;9.00;4.10;;;;;;;12.82;47.87;100765.20;26971;1221;3057397;-63
2021/09/07 06:12:11;;;;;;;13.50;3.90;;;;;;;12.86;48.11;100769.23;26896;1221;3052236;-66
2021/09/07 06:14:41;;;;;;;13.60;4.10;;;;;;;12.91;47.70;100767.02;26913;1225;3027048;-66
2021/09/07 06:17:10;;;;;;;7.80;3.00;;;;;;;13.04;47.80;100771.11;26948;1221;3026824;-64
2021/09/07 06:19:59;;;;;;;6.80;2.80;;;;;;;13.19;47.01;100772.66;26914;1223;3049773;-66
2021/09/07 06:22:28;;;;;;;10.00;2.90;;;;;;;13.25;46.76;100774.67;26900;1224;3027005;-64
2021/09/07 06:24:57;;;;;;;16.90;2.50;;;;;;;13.29;46.10;100778.14;26900;1222;3058222;-65
2021/09/07 06:27:26;;;;;;;7.90;2.80;;;;;;;13.31;45.51;100780.67;26885;1223;3026327;-64
2021/09/07 06:29:56;;;;;;;9.20;2.90;;;;;;;13.33;45.56;100780.77;26885;1222;3052703;-66
2021/09/07 06:32:25;;;;;;;12.50;3.80;;;;;;;13.38;45.53;100781.21;26993;1225;3026209;-69
2021/09/07 06:34:54;;;;;;;12.30;4.70;;;;;;;13.47;45.69;100786.55;26932;1224;3051533;-69
2021/09/07 06:37:23;;;;;;;13.60;4.30;;;;;;;13.54;46.02;100786.75;27016;1220;3026768;-67
2021/09/07 06:39:52;;;;;;;14.50;4.30;;;;;;;13.57;45.33;100792.77;26984;1221;3027321;-68
2021/09/07 06:42:21;;;;;;;9.60;4.00;;;;;;;13.65;44.71;100791.10;27005;1223;3051601;-65
2021/09/07 06:44:50;;;;;;;13.80;4.10;;;;;;;13.70;45.02;100790.15;26942;1220;3025828;-67
2021/09/07 06:47:19;;;;;;;16.70;5.20;;;;;;;13.83;45.13;100790.17;26933;1225;3048059;-69
2021/09/07 06:49:49;;;;;;;12.70;4.50;;;;;;;13.88;44.55;100787.80;26912;1220;3026650;-66
2021/09/07 06:52:20;;;;;;;18.40;5.30;;;;;;;13.92;44.57;100786.66;26940;1225;3028886;-65
2021/09/07 06:54:49;;;;;;;23.80;5.70;;;;;;;13.99;43.99;100787.89;27023;1225;3048707;-66
2021/09/07 06:57:19;;;;;;;24.90;5.00;;;;;;;14.07;43.77;100786.21;26962;1220;3026335;-67
2021/09/07 06:59:48;;;;;;;15.50;4.10;;;;;;;14.14;43.03;100787.96;26908;1221;3026501;-66
2021/09/07 07:02:17;;;;;;;15.10;4.50;;;;;;;14.22;43.34;100793.20;26931;1220;3026466;-73
2021/09/07 07:04:47;;;;;;;12.40;4.00;;;;;;;14.30;43.51;100794.13;26996;1220;3053912;-69
2021/09/07 07:07:16;;;;;;;12.40;4.70;;;;;;;14.32;43.16;100802.14;26928;1222;3025821;-69
2021/09/07 07:09:45;;;;;;;15.40;4.80;;;;;;;14.40;43.28;100800.11;26919;1226;3047816;-62
2021/09/07 07:12:14;;;;;;;13.20;4.00;;;;;;;14.52;43.02;100798.79;26955;1225;3025719;-64
2021/09/07 07:14:42;;;;;;;9.40;3.40;;;;;;;14.59;42.67;100794.64;26874;1223;3067270;-67
2021/09/07 07:17:11;;;;;;;12.70;3.30;;;;;;;14.48;42.79;100799.34;26985;1219;3026602;-68
2021/09/07 07:19:40;;;;;;;11.60;3.00;;;;;;;14.60;42.85;100796.56;26940;1221;3052567;-67
2021/09/07 07:22:10;;;;;;;10.60;3.20;;;;;;;14.70;42.45;100797.96;26904;1222;3025755;-67
2021/09/07 07:24:39;;;;;;;11.00;2.70;;;;;;;14.70;42.64;100799.73;26973;1220;3025690;-65
2021/09/07 07:27:08;;;;;;;7.30;2.30;;;;;;;14.75;42.43;100798.39;26944;1220;3050749;-63
2021/09/07 07:29:37;;;;;;;10.90;2.80;;;;;;;14.84;42.08;100798.07;26905;1220;3027685;-64
2021/09/07 07:32:09;;;;;;;5.50;2.10;;;;;;;15.00;41.79;100801.73;26930;1225;3025923;-64
2021/09/07 07:34:38;;;;;;;11.40;2.40;;;;;;;15.14;41.57;100792.30;26906;1221;3026359;-65
2021/09/07 07:37:07;;;;;;;10.20;2.60;;;;;;;15.24;41.39;100796.10;26943;1221;3070462;-65
2021/09/07 07:39:37;;;;;;;8.70;2.40;;;;;;;15.26;41.28;100801.47;27004;1222;3029071;-66
2021/09/07 07:42:06;;;;;;;8.90;3.30;;;;;;;15.35;40.74;100799.88;27006;1224;3051423;-63
2021/09/07 07:44:36;;;;;;;6.60;2.80;;;;;;;15.40;40.46;100797.57;26917;1227;3026453;-69
2021/09/07 07:47:06;;;;;;;8.50;2.90;;;;;;;15.56;40.60;100800.17;26948;1220;3026613;-62
2021/09/07 07:49:35;;;;;;;10.60;3.20;;;;;;;15.65;39.69;100797.34;27002;1221;3026837;-65
2021/09/07 07:52:04;;;;;;;5.20;2.60;;;;;;;15.72;40.16;100794.28;26966;1221;3026105;-65
2021/09/07 07:54:34;;;;;;;9.50;2.40;;;;;;;15.87;39.45;100798.35;26929;1221;3046863;-64
2021/09/07 07:57:03;;;;;;;10.20;1.60;;;;;;;16.01;39.91;100795.71;27004;1220;3026737;-65
2021/09/07 07:59:32;;;;;;;5.00;1.80;;;;;;;16.04;39.97;100799.21;27030;1225;3026928;-64
2021/09/07 08:02:01;;;;;;;11.60;2.00;;;;;;;16.08;39.79;100801.09;26920;1223;3050767;-64
2021/09/07 08:04:30;;;;;;;4.00;1.90;;;;;;;16.11;38.79;100802.67;26942;1220;3028976;-66
2021/09/07 08:07:00;;;;;;;3.90;1.80;;;;;;;16.09;37.32;100796.66;26967;1224;3069876;-68
2021/09/07 08:09:31;;;;;;;5.70;2.10;;;;;;;16.09;37.73;100793.80;26925;1221;3026393;-66
2021/09/07 08:12:00;;;;;;;7.10;1.70;;;;;;;16.18;38.30;100791.64;27046;1225;3026256;-64
2021/09/07 08:14:30;;;;;;;7.30;2.10;;;;;;;16.26;38.99;100791.35;26940;1227;3026470;-67
2021/09/07 08:17:00;;;;;;;5.20;1.70;;;;;;;16.41;39.22;100792.48;26931;1219;3026575;-67
2021/09/07 08:19:29;;;;;;;6.50;2.10;;;;;;;16.60;39.12;100791.98;26939;1221;3028540;-65
2021/09/07 08:22:04;;;;;;;6.10;2.00;;;;;;;16.74;38.84;100793.20;26935;1227;3054923;-63
2021/09/07 08:24:33;;;;;;;6.00;2.20;;;;;;;16.75;38.79;100791.56;26978;1221;3026223;-66
2021/09/07 08:27:03;;;;;;;4.60;1.80;;;;;;;16.87;38.70;100787.59;26982;1220;3026311;-63
2021/09/07 08:29:32;;;;;;;3.50;1.70;;;;;;;17.05;38.06;100784.64;27032;1221;3051298;-64
2021/09/07 08:32:00;;;;;;;3.40;1.50;;;;;;;17.16;37.50;100781.30;27015;1220;3027998;-63
2021/09/07 08:34:29;;;;;;;5.50;1.60;;;;;;;17.25;37.19;100779.73;26922;1222;3054007;-68
2021/09/07 08:36:59;;;;;;;7.00;1.90;;;;;;;17.33;36.47;100776.60;26954;1220;3026422;-65
2021/09/07 08:39:31;;;;;;;4.30;1.90;;;;;;;17.32;37.07;100775.77;26926;1220;3048651;-67
2021/09/07 08:42:00;;;;;;;3.40;1.70;;;;;;;17.32;36.78;100783.20;26893;1222;3025831;-64
2021/09/07 08:44:29;;;;;;;3.50;1.30;;;;;;;17.52;36.03;100783.80;26972;1228;3028308;-65
2021/09/07 08:46:58;;;;;;;3.90;1.50;;;;;;;17.54;35.25;100785.04;26901;1222;3026118;-61
2021/09/07 08:49:27;;;;;;;2.50;1.30;;;;;;;17.57;35.66;100784.88;26966;1221;3050488;-68
2021/09/07 08:51:56;;;;;;;6.60;1.30;;;;;;;17.53;35.84;100785.31;26908;1225;3025661;-62
2021/09/07 08:54:25;;;;;;;7.00;1.70;;;;;;;17.65;36.29;100781.98;26963;1225;3047558;-62
2021/09/07 08:56:54;;;;;;;2.70;1.20;;;;;;;17.75;35.43;100777.39;26926;1219;3027121;-64
2021/09/07 08:59:22;;;;;;;4.70;2.40;;;;;;;17.87;34.91;100774.25;26967;1227;3070318;-62
2021/09/07 09:01:54;;;;;;;3.80;1.30;;;;;;;17.93;35.05;100768.24;26924;1222;3026432;-63
2021/09/07 09:04:29;;;;;;;6.20;1.30;;;;;;;18.00;35.23;100768.61;27000;1219;3049907;-65
2021/09/07 09:07:24;;;;;;;4.90;1.80;;;;;;;18.13;34.65;100765.21;26956;1220;3070584;-64
2021/09/07 09:09:53;;;;;;;13.70;2.20;;;;;;;18.23;34.57;100766.94;26966;1224;3048645;-65
2021/09/07 09:12:36;;;;;;;5.50;1.60;;;;;;;18.29;35.21;100769.56;26994;1220;3027448;-69
2021/09/07 09:15:14;;;;;;;7.40;1.90;;;;;;;18.32;34.74;100772.17;26968;1225;3051797;-64
2021/09/07 09:17:43;;;;;;;6.30;1.20;;;;;;;18.41;34.36;100767.05;26937;1225;3058165;-62
2021/09/07 09:20:16;;;;;;;6.90;1.60;;;;;;;18.51;33.53;100769.91;26981;1223;3025872;-66
2021/09/07 09:22:54;;;;;;;4.80;1.40;;;;;;;18.58;33.08;100772.27;26954;1220;3052118;-64
2021/09/07 09:25:40;;;;;;;4.00;1.70;;;;;;;18.59;33.53;100769.13;26927;1220;3056322;-66
2021/09/07 09:28:11;;;;;;;4.00;1.30;;;;;;;18.62;34.03;100773.17;26899;1219;3049642;-65
2021/09/07 09:30:44;;;;;;;3.10;1.60;;;;;;;18.73;33.94;100775.58;27005;1222;3026192;-66
2021/09/07 09:33:16;;;;;;;3.20;1.50;;;;;;;18.87;33.58;100771.02;27065;1219;3026484;-66
2021/09/07 09:35:59;;;;;;;8.10;1.90;;;;;;;19.02;33.30;100769.02;26960;1225;3028000;-64
2021/09/07 09:38:32;;;;;;;2.60;1.60;;;;;;;19.15;33.09;100763.27;26918;1225;3048451;-64
2021/09/07 09:41:02;;;;;;;7.10;1.80;;;;;;;19.22;32.88;100763.90;27081;1225;3026635;-59
2021/09/07 09:43:38;;;;;;;3.80;1.60;;;;;;;19.32;32.88;100766.55;26997;1220;3025994;-66
2021/09/07 09:46:26;;;;;;;6.00;1.60;;;;;;;19.49;32.21;100771.48;26933;1219;3058496;-66
2021/09/07 09:49:14;;;;;;;3.40;1.50;;;;;;;19.46;31.63;100767.83;26939;1219;3051421;-65
2021/09/07 09:51:42;;;;;;;4.80;1.40;;;;;;;19.52;31.48;100768.08;26957;1224;3052681;-70
2021/09/07 09:54:11;;;;;;;3.70;1.30;;;;;;;19.60;31.95;100769.89;26957;1225;3025890;-64
2021/09/07 09:56:41;;;;;;;6.40;1.90;;;;;;;19.64;31.92;100768.77;26923;1219;3048499;-66
2021/09/07 09:59:10;;;;;;;7.20;1.50;;;;;;;19.75;31.80;100771.27;26955;1221;3026079;-63
2021/09/07 10:01:39;;;;;;;4.90;1.50;;;;;;;19.86;31.30;100767.59;26897;1224;3025574;-68
2021/09/07 10:04:10;;;;;;;5.30;1.50;;;;;;;19.84;31.06;100771.58;26897;1221;3048926;-70
2021/09/07 10:08:03;;;;;;;5.70;1.60;;;;;;;19.68;30.84;100770.95;33941;1225;3028137;-66
2021/09/07 10:10:32;;;;;;;3.40;1.40;;;;;;;19.89;31.12;100768.74;27041;1223;3026068;-66
2021/09/07 10:13:04;;;;;;;4.80;1.20;;;;;;;19.94;30.74;100763.22;26897;1229;3026878;-68
2021/09/07 10:15:39;;;;;;;3.20;1.20;;;;;;;20.16;29.67;100765.55;26946;1229;3026472;-70
2021/09/07 10:18:47;;;;;;;7.60;1.60;;;;;;;20.20;29.86;100757.73;26923;1221;3053302;-70
2021/09/07 10:24:20;;;;;;;2.70;1.40;;;;;;;20.23;30.49;100750.74;26914;1224;3051213;-65
2021/09/07 10:26:50;;;;;;;6.80;3.00;;;;;;;20.29;30.24;100748.29;26897;1228;3026362;-68
2021/09/07 10:29:22;;;;;;;10.00;2.10;;;;;;;20.37;30.54;100745.56;27012;1221;3026533;-66
2021/09/07 10:31:52;;;;;;;4.90;1.70;;;;;;;20.47;30.41;100740.61;26950;1221;3026552;-65
2021/09/07 10:34:24;;;;;;;3.90;1.80;;;;;;;20.56;30.20;100738.86;26993;1224;3027865;-69
2021/09/07 10:36:57;;;;;;;3.10;1.50;;;;;;;20.63;30.29;100739.30;26907;1224;3026417;-67
2021/09/07 10:39:34;;;;;;;3.20;1.70;;;;;;;20.58;30.41;100736.13;26902;1221;3026862;-69
2021/09/07 10:42:04;;;;;;;5.40;1.40;;;;;;;20.67;30.33;100745.40;26904;1225;3055857;-67
2021/09/07 10:44:34;;;;;;;3.70;1.60;;;;;;;20.76;29.17;100748.79;26913;1225;3027020;-70
2021/09/07 10:47:07;;;;;;;6.70;1.80;;;;;;;20.71;29.38;100746.17;26930;1225;3026357;-65
2021/09/07 10:49:37;;;;;;;3.20;1.80;;;;;;;20.72;29.35;100751.39;26918;1225;3050864;-69
2021/09/07 10:54:55;;;;;;;5.60;1.50;;;;;;;20.73;29.12;100749.77;26945;1225;3026529;-68
2021/09/07 10:57:36;;;;;;;4.30;1.50;;;;;;;20.77;29.18;100744.55;26901;1228;3051458;-74
2021/09/07 11:00:14;;;;;;;6.10;1.60;;;;;;;20.79;29.22;100742.23;26917;1229;3052279;-67
2021/09/07 11:02:54;;;;;;;4.40;1.70;;;;;;;20.84;29.32;100742.98;26962;1221;3052448;-67
2021/09/07 11:05:23;;;;;;;5.40;1.90;;;;;;;20.84;28.90;100739.59;26924;1228;3058911;-68
2021/09/07 11:08:17;;;;;;;5.10;1.60;;;;;;;20.87;29.28;100744.48;26917;1224;3026225;-70
2021/09/07 11:10:48;;;;;;;3.20;1.30;;;;;;;20.89;29.21;100743.38;26907;1221;3052536;-70
2021/09/07 11:13:25;;;;;;;3.90;1.80;;;;;;;20.84;29.26;100738.61;27002;1227;3026039;-66
2021/09/07 11:16:01;;;;;;;2.70;1.60;;;;;;;20.66;29.29;100734.65;26922;1225;3048267;-68
2021/09/07 11:18:34;;;;;;;1.70;1.10;;;;;;;20.84;28.76;100737.05;26985;1225;3052503;-71
2021/09/07 11:21:09;;;;;;;3.10;1.60;;;;;;;20.89;28.66;100734.88;26939;1229;3025839;-71
2021/09/07 11:23:38;;;;;;;2.50;1.40;;;;;;;21.01;28.83;100733.35;27018;1221;3071282;-71
2021/09/07 11:26:09;;;;;;;10.50;2.30;;;;;;;20.83;28.09;100732.88;26952;1225;3028299;-71
2021/09/07 11:28:40;;;;;;;4.20;1.40;;;;;;;20.40;27.94;100730.65;26927;1228;3051551;-67
2021/09/07 11:31:10;;;;;;;5.60;1.70;;;;;;;20.53;28.46;100724.30;26962;1227;3026184;-70